Time;durP1;ratioP1;P1;durP2;ratioP2;P2;SDS_P1;SDS_P2;PMS_P1;PMS_P2;Temp;Humidity;BMP_temperature;BMP_pressure;BME280_temperature;BME280_humidity;BME280_pressure;Samples;Min_cycle;Max_cycle;Signal;HPM_P1;HPM_P2
2022/08/20 00:00:13;;;;;;;11.73;5.70;;;;;;;25.17;100.00;100715.47;2072633;28;20174;-67
2022/08/20 00:01:14;;;;;;;9.03;5.63;;;;;;;25.16;100.00;100718.84;2073631;28;20219;-67
2022/08/20 00:02:15;;;;;;;12.97;6.20;;;;;;;25.14;100.00;100716.56;2073339;28;20201;-67
2022/08/20 00:03:17;;;;;;;10.77;5.60;;;;;;;24.62;100.00;100641.56;2066996;28;20200;-67
2022/08/20 00:04:17;;;;;;;8.37;5.33;;;;;;;24.54;100.00;100624.31;2071129;28;20233;-67
2022/08/20 00:05:28;;;;;;;10.00;5.70;;;;;;;25.09;100.00;100714.53;2070749;28;20414;-67
2022/08/20 00:06:29;;;;;;;9.63;5.37;;;;;;;25.06;100.00;100715.59;2065110;28;20268;-67
2022/08/20 00:07:30;;;;;;;7.73;6.50;;;;;;;24.92;100.00;100690.47;2061596;28;20201;-67
2022/08/20 00:08:31;;;;;;;9.67;5.60;;;;;;;24.58;100.00;100660.88;2068846;28;20288;-67
2022/08/20 00:09:33;;;;;;;8.47;5.73;;;;;;;24.90;100.00;100699.50;2072568;28;20618;-67
2022/08/20 00:10:38;;;;;;;10.03;6.40;;;;;;;24.31;100.00;100628.63;2070463;28;20271;-67
2022/08/20 00:11:38;;;;;;;9.47;6.23;;;;;;;24.48;100.00;100649.09;2074149;28;20183;-67
2022/08/20 00:12:44;;;;;;;10.57;5.70;;;;;;;24.76;100.00;100697.81;2074503;28;20655;-67
2022/08/20 00:13:49;;;;;;;8.27;5.83;;;;;;;24.74;100.00;100702.47;2066020;28;20205;-67
2022/08/20 00:14:49;;;;;;;7.73;5.87;;;;;;;24.71;100.00;100700.72;2065350;28;20182;-67
2022/08/20 00:15:51;;;;;;;14.00;6.40;;;;;;;24.64;100.00;100701.28;2065078;28;20549;-67
2022/08/20 00:16:51;;;;;;;11.27;6.37;;;;;;;24.61;100.00;100702.34;2066225;28;20221;-67
2022/08/20 00:17:53;;;;;;;10.53;6.00;;;;;;;24.66;100.00;100707.19;2072301;28;20193;-67
2022/08/20 00:18:53;;;;;;;8.47;6.07;;;;;;;24.66;100.00;100710.03;2074124;28;20189;-67
2022/08/20 00:19:54;;;;;;;9.53;6.07;;;;;;;24.27;100.00;100653.66;2074014;28;20251;-67
2022/08/20 00:20:55;;;;;;;9.60;5.83;;;;;;;24.23;100.00;100647.50;2073782;28;20196;-67
2022/08/20 00:21:56;;;;;;;7.63;5.57;;;;;;;24.64;100.00;100704.13;2074474;28;20621;-67
2022/08/20 00:22:57;;;;;;;9.33;6.17;;;;;;;24.64;100.00;100704.13;2074263;28;20190;-68
2022/08/20 00:23:58;;;;;;;8.77;6.17;;;;;;;24.58;100.00;100703.38;2066590;28;20270;-67
2022/08/20 00:24:58;;;;;;;8.47;5.87;;;;;;;24.54;100.00;100697.22;2064892;28;20257;-67
2022/08/20 00:25:59;;;;;;;10.37;5.70;;;;;;;24.47;100.00;100700.63;2064991;28;20194;-67
2022/08/20 00:26:59;;;;;;;12.30;6.73;;;;;;;24.45;100.00;100700.34;2066012;28;20217;-68
2022/08/20 00:28:02;;;;;;;11.00;6.23;;;;;;;24.20;100.00;100657.03;2065913;28;20649;-66
2022/08/20 00:29:02;;;;;;;11.37;6.00;;;;;;;23.33;100.00;100523.28;2072074;28;20204;-67
2022/08/20 00:30:06;;;;;;;9.90;6.47;;;;;;;24.42;100.00;100692.94;2072931;28;20188;-66
2022/08/20 00:31:10;;;;;;;8.77;6.17;;;;;;;24.41;100.00;100700.66;2066023;28;20267;-67
2022/08/20 00:32:11;;;;;;;13.43;7.10;;;;;;;24.41;100.00;100702.72;2066239;28;20179;-67
2022/08/20 00:33:14;;;;;;;11.50;7.00;;;;;;;24.37;100.00;100708.66;2073406;28;20198;-67
2022/08/20 00:34:15;;;;;;;10.60;7.20;;;;;;;24.35;100.00;100716.13;2070975;28;20197;-67
2022/08/20 00:35:18;;;;;;;9.77;7.00;;;;;;;24.33;100.00;100713.06;2072950;28;20229;-67
2022/08/20 00:36:19;;;;;;;8.60;6.53;;;;;;;24.00;100.00;100676.47;2068197;28;20194;-66
2022/08/20 00:37:20;;;;;;;8.30;6.40;;;;;;;24.32;100.00;100709.50;2069593;28;20189;-67
2022/08/20 00:38:21;;;;;;;7.03;6.30;;;;;;;23.67;100.00;100609.50;2071350;28;21092;-66
2022/08/20 00:39:22;;;;;;;7.93;6.13;;;;;;;24.24;100.00;100700.00;2067350;28;20273;-66
2022/08/20 00:40:27;;;;;;;9.20;6.40;;;;;;;24.34;100.00;100708.94;2072994;28;20244;-67
2022/08/20 00:41:29;;;;;;;10.27;6.80;;;;;;;24.06;100.00;100672.31;2069099;28;20737;-66
2022/08/20 00:42:30;;;;;;;11.37;6.57;;;;;;;24.28;100.00;100717.50;2066198;28;20182;-66
2022/08/20 00:44:03;;;;;;;8.83;6.57;;;;;;;24.23;100.00;100715.47;2072822;28;20219;-67
2022/08/20 00:45:04;;;;;;;13.63;7.00;;;;;;;23.49;100.00;100612.16;2046414;29;20329;-67
2022/08/20 00:46:11;;;;;;;10.13;6.20;;;;;;;24.18;100.00;100716.25;2057743;28;20257;-67
2022/08/20 00:47:12;;;;;;;10.27;6.93;;;;;;;24.14;100.00;100718.59;2073857;28;20166;-67
2022/08/20 00:48:12;;;;;;;11.10;6.53;;;;;;;24.03;100.00;100718.66;2066076;28;20214;-67
2022/08/20 00:49:23;;;;;;;10.77;6.90;;;;;;;23.80;100.00;100699.47;2073019;28;20228;-67
2022/08/20 00:50:32;;;;;;;14.10;7.53;;;;;;;23.92;100.00;100718.72;2066187;28;20260;-67
2022/08/20 00:52:02;;;;;;;9.87;6.80;;;;;;;23.93;100.00;100722.31;2080613;28;20213;-66
2022/08/20 00:53:06;;;;;;;7.93;6.43;;;;;;;23.92;100.00;100713.06;2064252;28;20222;-67
2022/08/20 00:54:20;;;;;;;11.67;6.90;;;;;;;23.90;100.00;100721.28;2065869;28;20193;-66
2022/08/20 00:55:24;;;;;;;11.60;7.30;;;;;;;23.35;100.00;100638.69;2071188;28;20192;-66
2022/08/20 00:56:25;;;;;;;13.70;7.10;;;;;;;23.93;100.00;100722.31;2065196;28;20185;-67
2022/08/20 00:57:37;;;;;;;15.63;6.93;;;;;;;23.90;100.00;100720.53;2065927;28;20185;-67
2022/08/20 00:58:39;;;;;;;10.63;7.00;;;;;;;23.91;100.00;100710.75;2071467;28;20174;-67
2022/08/20 00:59:41;;;;;;;12.17;6.70;;;;;;;23.82;100.00;100694.03;2065655;28;20189;-66
2022/08/20 01:00:45;;;;;;;9.03;7.00;;;;;;;23.96;100.00;100707.13;2065469;28;20641;-67
2022/08/20 01:01:46;;;;;;;11.07;6.67;;;;;;;24.00;100.00;100710.44;2056828;28;20214;-66
2022/08/20 01:02:49;;;;;;;11.80;6.83;;;;;;;24.04;100.00;100702.44;2062693;28;20190;-66
2022/08/20 01:03:52;;;;;;;8.33;6.43;;;;;;;24.02;100.00;100696.53;2068565;28;20214;-67
2022/08/20 01:04:54;;;;;;;10.30;6.90;;;;;;;24.09;100.00;100704.47;2065098;28;20182;-66
2022/08/20 01:05:55;;;;;;;9.77;6.67;;;;;;;24.09;100.00;100708.06;2067964;28;20592;-66
2022/08/20 01:06:56;;;;;;;11.37;7.03;;;;;;;24.10;100.00;100708.84;2067594;28;20228;-67
2022/08/20 01:07:57;;;;;;;11.50;7.03;;;;;;;24.05;100.00;100695.50;2073601;28;20239;-67
2022/08/20 01:09:00;;;;;;;7.87;6.83;;;;;;;24.05;100.00;100704.75;2074028;28;20256;-67
2022/08/20 01:10:10;;;;;;;7.67;6.87;;;;;;;24.06;100.00;100703.44;2073755;28;20247;-67
2022/08/20 01:11:20;;;;;;;10.03;7.10;;;;;;;24.07;100.00;100701.41;2065823;28;20305;-67
2022/08/20 01:12:22;;;;;;;10.73;6.77;;;;;;;24.05;100.00;100693.41;2065334;28;20166;-66
2022/08/20 01:13:24;;;;;;;12.07;7.27;;;;;;;24.07;100.00;100693.69;2072994;28;20308;-66
2022/08/20 01:14:42;;;;;;;12.13;7.43;;;;;;;24.09;100.00;100691.09;2066536;28;20673;-67
2022/08/20 01:15:47;;;;;;;12.50;7.67;;;;;;;24.09;100.00;100690.31;2072235;28;20273;-67
2022/08/20 01:16:50;;;;;;;13.13;7.40;;;;;;;23.88;100.00;100663.63;2073535;28;20196;-67
2022/08/20 01:17:56;;;;;;;12.70;8.20;;;;;;;24.05;100.00;100710.41;2073137;28;20193;-67
2022/08/20 01:18:59;;;;;;;13.60;7.20;;;;;;;24.06;100.00;100691.38;2073632;28;20273;-67
2022/08/20 01:20:40;;;;;;;15.17;7.80;;;;;;;24.15;100.00;100691.06;2068213;28;20198;-67
2022/08/20 01:21:40;;;;;;;16.80;7.47;;;;;;;24.19;100.00;100700.81;2065397;28;20631;-67
2022/08/20 01:24:34;;;;;;;9.97;6.27;;;;;;;24.27;100.00;100707.47;2071536;28;20261;-67
2022/08/20 01:25:46;;;;;;;10.37;6.67;;;;;;;24.32;100.00;100703.03;2063875;28;20193;-67
2022/08/20 01:26:48;;;;;;;13.40;7.50;;;;;;;24.32;100.00;100698.16;2065163;28;20288;-66
2022/08/20 01:27:51;;;;;;;11.33;6.77;;;;;;;24.31;100.00;100699.44;2065211;28;20205;-67
2022/08/20 01:29:00;;;;;;;14.17;7.63;;;;;;;23.98;100.00;100654.34;2068922;28;20277;-66
2022/08/20 01:30:02;;;;;;;11.50;7.43;;;;;;;24.35;100.00;100704.81;2070157;28;20198;-67
2022/08/20 01:31:06;;;;;;;12.67;7.20;;;;;;;24.07;100.00;100673.88;2065179;28;20202;-67
2022/08/20 01:32:06;;;;;;;8.70;7.20;;;;;;;24.38;100.00;100706.59;2066910;28;20887;-67
2022/08/20 01:33:07;;;;;;;10.07;6.40;;;;;;;24.44;100.00;100696.00;2073318;28;20244;-67
2022/08/20 01:34:13;;;;;;;10.50;7.10;;;;;;;24.40;100.00;100706.84;2068347;28;20196;-67
2022/08/20 01:35:19;;;;;;;9.30;6.50;;;;;;;24.33;100.00;100701.75;2064949;28;20208;-67
2022/08/20 01:36:32;;;;;;;14.40;7.27;;;;;;;24.07;100.00;100685.19;2063674;28;20218;-66
2022/08/20 01:37:32;;;;;;;10.23;7.17;;;;;;;24.25;100.00;100714.94;2058507;28;20199;-67
2022/08/20 01:38:33;;;;;;;16.80;7.13;;;;;;;24.23;100.00;100706.97;2072322;28;20245;-67
2022/08/20 01:39:35;;;;;;;18.33;8.40;;;;;;;24.20;100.00;100713.66;2067337;28;20233;-66
2022/08/20 01:40:53;;;;;;;15.57;7.97;;;;;;;24.21;100.00;100708.78;2064874;28;20639;-67
2022/08/20 01:42:22;;;;;;;14.67;7.03;;;;;;;24.12;100.00;100712.69;2065946;28;20190;-66
2022/08/20 01:43:23;;;;;;;10.77;7.03;;;;;;;24.14;100.00;100712.16;2065504;28;20186;-66
2022/08/20 01:44:24;;;;;;;11.83;6.67;;;;;;;24.15;100.00;100708.06;2065062;28;20679;-66
2022/08/20 01:45:26;;;;;;;15.37;7.03;;;;;;;24.14;100.00;100715.75;2064331;28;20190;-67
2022/08/20 01:46:31;;;;;;;15.73;7.50;;;;;;;23.55;100.00;100615.72;2072944;28;20659;-67
2022/08/20 01:47:33;;;;;;;14.67;7.23;;;;;;;24.13;100.00;100708.56;2067385;28;20259;-67
2022/08/20 01:48:33;;;;;;;12.33;7.40;;;;;;;24.00;100.00;100688.56;2065426;28;20567;-67
2022/08/20 01:49:34;;;;;;;12.77;7.50;;;;;;;24.17;100.00;100711.91;2065262;28;20245;-66
2022/08/20 01:50:37;;;;;;;15.17;7.63;;;;;;;24.18;100.00;100719.09;2065029;28;20240;-66
2022/08/20 01:51:39;;;;;;;14.93;7.93;;;;;;;24.16;100.00;100718.84;2065286;28;20418;-66
2022/08/20 01:52:54;;;;;;;13.50;7.73;;;;;;;23.77;100.00;100667.31;2066168;28;20262;-67
2022/08/20 01:53:58;;;;;;;11.30;7.30;;;;;;;24.14;100.00;100712.94;2072983;28;20184;-66
2022/08/20 01:54:59;;;;;;;13.63;7.63;;;;;;;24.12;100.00;100709.09;2064486;28;20174;-67
2022/08/20 01:56:02;;;;;;;13.13;7.53;;;;;;;24.13;100.00;100708.56;2064043;28;20183;-67
2022/08/20 01:57:09;;;;;;;12.87;7.30;;;;;;;24.16;100.00;100706.75;2056780;28;20191;-66
2022/08/20 01:58:09;;;;;;;14.60;7.30;;;;;;;24.00;100.00;100682.16;2065033;28;20186;-66
2022/08/20 01:59:10;;;;;;;11.43;7.47;;;;;;;24.20;100.00;100708.00;2066642;28;20443;-66
2022/08/20 02:00:14;;;;;;;14.33;7.27;;;;;;;24.22;100.00;100710.31;2064959;28;20769;-67
2022/08/20 02:01:26;;;;;;;12.87;7.33;;;;;;;24.25;100.00;100710.03;2064964;28;20217;-67
2022/08/20 02:02:27;;;;;;;13.63;8.03;;;;;;;24.29;100.00;100709.75;2065383;28;20225;-67
2022/08/20 02:03:28;;;;;;;14.57;7.57;;;;;;;24.29;100.00;100712.56;2065009;28;20442;-66
2022/08/20 02:04:30;;;;;;;11.67;6.80;;;;;;;24.31;100.00;100712.84;2068408;28;20562;-66
2022/08/20 02:05:32;;;;;;;13.27;7.80;;;;;;;24.30;100.00;100717.72;2069312;28;20205;-66
2022/08/20 02:06:36;;;;;;;17.87;8.03;;;;;;;24.31;100.00;100713.59;2068399;28;20173;-67
2022/08/20 02:07:37;;;;;;;17.83;7.80;;;;;;;24.29;100.00;100716.19;2064608;28;20205;-67
2022/08/20 02:08:37;;;;;;;17.27;7.53;;;;;;;24.30;100.00;100720.56;2065471;28;20175;-67
2022/08/20 02:09:39;;;;;;;12.03;7.10;;;;;;;24.31;100.00;100712.84;2072995;28;20205;-66
2022/08/20 02:10:39;;;;;;;12.83;7.20;;;;;;;24.26;100.00;100702.31;2071676;28;20189;-66
2022/08/20 02:11:40;;;;;;;16.87;7.60;;;;;;;24.30;100.00;100714.88;2067326;28;20277;-67
2022/08/20 02:12:41;;;;;;;16.30;7.67;;;;;;;24.30;100.00;100714.88;2065249;28;20708;-66
2022/08/20 02:13:41;;;;;;;18.93;8.00;;;;;;;24.32;100.00;100714.38;2059531;28;20235;-67
2022/08/20 02:14:45;;;;;;;20.83;7.90;;;;;;;24.29;100.00;100724.69;2062130;28;20258;-66
2022/08/20 02:15:45;;;;;;;14.77;7.77;;;;;;;24.26;100.00;100713.66;2063747;28;20604;-66
2022/08/20 02:16:46;;;;;;;12.03;7.77;;;;;;;24.20;100.00;100716.50;2065213;28;20619;-66
2022/08/20 02:17:47;;;;;;;16.03;8.30;;;;;;;23.51;100.00;100603.91;2070757;28;20235;-66
2022/08/20 02:18:53;;;;;;;15.17;7.87;;;;;;;24.09;100.00;100696.75;2073064;28;20220;-67
2022/08/20 02:20:06;;;;;;;15.90;7.90;;;;;;;24.18;100.00;100701.31;2065806;28;20285;-67
2022/08/20 02:21:06;;;;;;;16.23;8.00;;;;;;;24.17;100.00;100706.25;2072851;28;20833;-66
2022/08/20 02:22:19;;;;;;;15.83;7.90;;;;;;;24.11;100.00;100713.97;2073126;28;20193;-67
2022/08/20 02:23:19;;;;;;;14.23;7.67;;;;;;;24.05;100.00;100706.81;2073213;28;20651;-67
2022/08/20 02:24:21;;;;;;;16.77;7.73;;;;;;;24.11;100.00;100716.81;2066519;28;20676;-66
2022/08/20 02:25:23;;;;;;;12.93;7.40;;;;;;;24.11;100.00;100705.47;2068967;28;20666;-66
2022/08/20 02:26:25;;;;;;;14.83;7.80;;;;;;;24.11;100.00;100713.97;2068420;28;20178;-67
2022/08/20 02:27:26;;;;;;;12.73;7.47;;;;;;;24.12;100.00;100709.88;2068146;28;20197;-66
2022/08/20 02:28:26;;;;;;;11.47;7.70;;;;;;;24.08;100.00;100706.53;2070522;28;20188;-67
2022/08/20 02:29:27;;;;;;;13.70;6.90;;;;;;;23.88;100.00;100698.38;2067808;28;20188;-67
2022/08/20 02:30:36;;;;;;;11.97;7.17;;;;;;;24.08;100.00;100705.75;2073095;28;20559;-66
2022/08/20 02:31:38;;;;;;;12.27;7.13;;;;;;;24.09;100.00;100699.56;2073399;28;20219;-67
2022/08/20 02:32:39;;;;;;;15.23;7.33;;;;;;;24.12;100.00;100698.53;2065314;28;20189;-67
2022/08/20 02:33:40;;;;;;;11.83;7.00;;;;;;;24.14;100.00;100692.34;2071777;28;20663;-66
2022/08/20 02:34:40;;;;;;;10.20;6.57;;;;;;;23.92;100.00;100669.81;2073101;28;20610;-67
2022/08/20 02:35:44;;;;;;;7.80;6.73;;;;;;;24.14;100.00;100693.13;2066382;28;20664;-67
2022/08/20 02:36:45;;;;;;;11.80;6.50;;;;;;;24.12;100.00;100700.59;2060597;28;20205;-67
2022/08/20 02:37:45;;;;;;;12.07;7.00;;;;;;;23.48;100.00;100607.78;2063906;28;21012;-66
2022/08/20 02:38:46;;;;;;;10.27;6.83;;;;;;;24.07;100.00;100696.50;2072785;28;20248;-67
2022/08/20 02:39:47;;;;;;;8.23;6.37;;;;;;;23.15;100.00;100551.34;2072011;28;20710;-67
2022/08/20 02:40:47;;;;;;;8.90;6.50;;;;;;;23.55;100.00;100619.31;2064683;28;20668;-67
2022/08/20 02:41:49;;;;;;;9.77;6.43;;;;;;;24.10;100.00;100695.44;2070849;28;20193;-66
2022/08/20 02:42:49;;;;;;;10.10;6.20;;;;;;;24.13;100.00;100690.81;2073138;28;20261;-66
2022/08/20 02:43:50;;;;;;;13.67;6.70;;;;;;;23.95;100.00;100668.78;2072666;28;20185;-66
2022/08/20 02:44:50;;;;;;;10.60;7.00;;;;;;;24.08;100.00;100685.94;2072386;28;20581;-66
2022/08/20 02:45:51;;;;;;;8.80;7.07;;;;;;;23.75;100.00;100646.50;2072075;28;20223;-67
2022/08/20 02:46:51;;;;;;;9.40;7.07;;;;;;;24.14;100.00;100703.66;2072920;28;20610;-66
2022/08/20 02:47:52;;;;;;;10.50;6.73;;;;;;;24.12;100.00;100703.41;2071507;28;20174;-66
2022/08/20 02:48:54;;;;;;;10.40;7.90;;;;;;;23.93;100.00;100686.28;2064706;28;20174;-66
2022/08/20 02:49:55;;;;;;;11.60;7.40;;;;;;;24.02;100.00;100694.47;2064977;28;20197;-66
2022/08/20 02:51:00;;;;;;;10.77;7.10;;;;;;;24.03;100.00;100692.41;2072135;28;20185;-67
2022/08/20 02:52:01;;;;;;;10.43;7.07;;;;;;;24.06;100.00;100702.69;2065952;28;20265;-66
2022/08/20 02:53:01;;;;;;;9.47;6.63;;;;;;;24.03;100.00;100696.03;2064949;28;20190;-66
2022/08/20 02:54:02;;;;;;;9.23;6.70;;;;;;;23.87;100.00;100679.88;2072135;28;20265;-66
2022/08/20 02:55:03;;;;;;;11.83;6.70;;;;;;;23.96;100.00;100693.72;2072027;28;20305;-67
2022/08/20 02:56:05;;;;;;;9.53;7.03;;;;;;;23.95;100.00;100702.75;2071526;28;20682;-66
2022/08/20 02:57:11;;;;;;;8.67;7.13;;;;;;;23.45;100.00;100634.28;2072895;28;20644;-66
2022/08/20 02:58:12;;;;;;;11.47;6.80;;;;;;;23.68;100.00;100687.41;2071405;28;20252;-66
2022/08/20 02:59:12;;;;;;;8.83;6.67;;;;;;;23.81;100.00;100698.94;2064482;28;20186;-67
2022/08/20 03:00:18;;;;;;;10.90;6.90;;;;;;;23.77;100.00;100701.28;2064580;28;20179;-67
2022/08/20 03:01:19;;;;;;;9.93;6.90;;;;;;;23.54;100.00;100662.28;2073033;28;20209;-66
2022/08/20 03:02:20;;;;;;;11.63;6.87;;;;;;;23.78;100.00;100696.34;2072974;28;20203;-66
2022/08/20 03:03:21;;;;;;;12.17;7.93;;;;;;;23.77;100.00;100698.44;2066742;28;20178;-66
2022/08/20 03:04:21;;;;;;;18.07;8.00;;;;;;;23.77;100.00;100700.50;2069439;28;20239;-67
2022/08/20 03:05:22;;;;;;;14.27;7.53;;;;;;;23.75;100.00;100698.19;2070273;28;20201;-66
2022/08/20 03:06:22;;;;;;;11.87;7.47;;;;;;;23.71;100.00;100699.75;2072331;28;20197;-66
2022/08/20 03:07:23;;;;;;;14.13;8.13;;;;;;;23.36;100.00;100668.50;2071055;28;20201;-66
2022/08/20 03:08:26;;;;;;;10.90;7.70;;;;;;;22.61;100.00;100541.78;2064730;28;20186;-67
2022/08/20 03:09:26;;;;;;;13.10;7.57;;;;;;;23.62;100.00;100706.47;2073004;28;20185;-66
2022/08/20 03:10:31;;;;;;;12.43;7.60;;;;;;;23.62;100.00;100697.22;2068308;28;20216;-66
2022/08/20 03:11:31;;;;;;;14.53;8.30;;;;;;;23.58;100.00;100699.53;2065538;28;20289;-66
2022/08/20 03:12:32;;;;;;;14.33;8.00;;;;;;;23.56;100.00;100699.28;2064824;28;20469;-66
2022/08/20 03:13:33;;;;;;;12.73;7.60;;;;;;;23.52;100.00;100695.97;2064426;28;20201;-67
2022/08/20 03:14:34;;;;;;;12.20;7.57;;;;;;;23.48;100.00;100689.78;2064809;28;20557;-66
2022/08/20 03:15:35;;;;;;;10.90;7.73;;;;;;;22.60;100.00;100568.47;2062961;28;20666;-66
2022/08/20 03:16:36;;;;;;;9.17;7.00;;;;;;;23.27;100.00;100666.75;2064801;28;20205;-66
2022/08/20 03:17:36;;;;;;;9.90;7.70;;;;;;;23.36;100.00;100686.25;2067930;28;20271;-67
2022/08/20 03:18:42;;;;;;;11.47;7.10;;;;;;;23.41;100.00;100696.78;2065057;28;20187;-66
2022/08/20 03:19:42;;;;;;;11.07;7.50;;;;;;;23.41;100.00;100708.09;2065048;28;20204;-67
2022/08/20 03:20:43;;;;;;;16.37;7.60;;;;;;;23.09;100.00;100660.84;2063807;28;20657;-67
2022/08/20 03:21:44;;;;;;;16.87;8.03;;;;;;;23.41;100.00;100699.59;2072846;28;20273;-66
2022/08/20 03:22:44;;;;;;;12.80;7.50;;;;;;;23.43;100.00;100702.69;2072724;28;20178;-66
2022/08/20 03:23:45;;;;;;;10.03;7.63;;;;;;;23.15;100.00;100653.13;2068112;28;20696;-66
2022/08/20 03:24:45;;;;;;;11.93;7.73;;;;;;;23.36;100.00;100689.09;2064251;28;20668;-67
2022/08/20 03:25:47;;;;;;;12.20;8.13;;;;;;;23.47;100.00;100700.34;2063418;28;20198;-66
2022/08/20 03:26:47;;;;;;;13.87;8.20;;;;;;;23.46;100.00;100692.38;2064709;28;20181;-66
2022/08/20 03:27:48;;;;;;;14.00;8.00;;;;;;;23.44;100.00;100698.56;2064812;28;20181;-67
2022/08/20 03:28:48;;;;;;;14.40;8.07;;;;;;;23.43;100.00;100691.38;2070888;28;20189;-66
2022/08/20 03:29:49;;;;;;;13.57;8.00;;;;;;;23.12;100.00;100656.97;2072559;28;20573;-67
2022/08/20 03:30:50;;;;;;;23.90;8.83;;;;;;;23.32;100.00;100697.06;2072010;28;20197;-66
2022/08/20 03:31:50;;;;;;;16.57;8.50;;;;;;;22.77;100.00;100594.66;2072668;28;20180;-67
2022/08/20 03:32:51;;;;;;;10.00;7.83;;;;;;;23.45;100.00;100702.16;2069296;28;20190;-66
2022/08/20 03:33:52;;;;;;;12.63;7.90;;;;;;;23.41;100.00;100701.66;2065042;28;20181;-66
2022/08/20 03:34:52;;;;;;;13.87;8.13;;;;;;;23.41;100.00;100702.44;2071924;28;20257;-67
2022/08/20 03:35:53;;;;;;;13.30;9.20;;;;;;;23.37;100.00;100696.28;2070609;28;20174;-66
2022/08/20 03:36:53;;;;;;;13.03;8.63;;;;;;;23.43;100.00;100718.88;2064844;28;20233;-66
2022/08/20 03:37:55;;;;;;;12.73;8.30;;;;;;;23.43;100.00;100716.81;2071637;28;20221;-66
2022/08/20 03:38:57;;;;;;;11.53;8.17;;;;;;;23.43;100.00;100718.88;2066247;28;20268;-66
2022/08/20 03:39:59;;;;;;;11.60;8.50;;;;;;;23.43;100.00;100724.53;2064784;28;20202;-66
2022/08/20 03:41:01;;;;;;;11.07;8.30;;;;;;;23.41;100.00;100718.63;2067904;28;20209;-66
2022/08/20 03:42:01;;;;;;;12.17;7.93;;;;;;;23.40;100.00;100723.53;2069297;28;20656;-66
2022/08/20 03:43:04;;;;;;;11.87;8.37;;;;;;;23.35;100.00;100717.88;2064542;28;20853;-66
2022/08/20 03:44:05;;;;;;;15.30;8.87;;;;;;;23.30;100.00;100713.00;2064125;28;20601;-66
2022/08/20 03:45:07;;;;;;;11.80;8.00;;;;;;;22.68;100.00;100626.75;2064783;28;20417;-67
2022/08/20 03:46:08;;;;;;;13.50;8.37;;;;;;;23.27;100.00;100719.69;2078474;28;20181;-67
2022/08/20 03:47:08;;;;;;;9.03;8.13;;;;;;;23.27;100.00;100720.47;2064890;28;20429;-67
2022/08/20 03:48:13;;;;;;;11.73;7.70;;;;;;;23.31;100.00;100720.97;2077825;28;20644;-66
2022/08/20 03:49:13;;;;;;;11.77;8.20;;;;;;;22.96;100.00;100674.75;2074697;28;20240;-66
2022/08/20 03:50:14;;;;;;;12.73;8.30;;;;;;;23.28;100.00;100724.06;2067368;28;20444;-66
2022/08/20 03:51:14;;;;;;;9.50;8.60;;;;;;;;;;2063924;28;20190;-66
2022/08/20 03:52:16;;;;;;;9.73;8.50;;;;;;;23.27;100.00;100742.28;2067158;28;20204;-66
2022/08/20 03:53:17;;;;;;;10.83;7.80;;;;;;;23.27;100.00;100736.63;2070862;28;20201;-67
2022/08/20 03:54:18;;;;;;;11.07;8.30;;;;;;;23.20;100.00;100725.88;2064743;28;20422;-66
2022/08/20 03:55:20;;;;;;;9.10;8.10;;;;;;;23.25;100.00;100734.34;2071933;28;20428;-66
2022/08/20 03:56:20;;;;;;;12.17;8.57;;;;;;;23.24;100.00;100738.44;2062895;28;20186;-66
2022/08/20 03:57:21;;;;;;;12.03;8.37;;;;;;;23.26;100.00;100735.09;2063839;28;20775;-66
2022/08/20 03:58:22;;;;;;;12.17;8.40;;;;;;;22.97;100.00;100691.19;2067804;28;20266;-66
2022/08/20 03:59:23;;;;;;;13.00;8.10;;;;;;;23.28;100.00;100736.13;2067917;28;20228;-66
2022/08/20 04:00:47;;;;;;;11.37;8.10;;;;;;;23.32;100.00;100744.34;2067690;28;20438;-66
2022/08/20 04:01:48;;;;;;;12.43;8.17;;;;;;;23.27;100.00;100737.44;2072185;28;20186;-66
2022/08/20 04:02:48;;;;;;;11.37;8.17;;;;;;;23.28;100.00;100738.97;2068118;28;20437;-66
2022/08/20 04:03:49;;;;;;;11.47;8.20;;;;;;;23.26;100.00;100733.06;2063921;28;20265;-66
2022/08/20 04:04:50;;;;;;;16.70;8.93;;;;;;;23.29;100.00;100739.75;2063863;28;20194;-66
2022/08/20 04:05:51;;;;;;;12.50;8.60;;;;;;;23.32;100.00;100733.81;2068139;28;20268;-66
2022/08/20 04:06:52;;;;;;;10.80;8.33;;;;;;;23.32;100.00;100733.81;2064546;28;20182;-67
2022/08/20 04:07:52;;;;;;;13.93;8.43;;;;;;;23.37;100.00;100735.88;2072983;28;20184;-66
2022/08/20 04:08:53;;;;;;;13.10;8.17;;;;;;;23.40;100.00;100737.66;2065299;28;20241;-66
2022/08/20 04:09:55;;;;;;;12.27;7.63;;;;;;;23.41;100.00;100744.06;2064512;28;20193;-66
2022/08/20 04:10:57;;;;;;;13.07;7.90;;;;;;;23.34;100.00;100733.31;2071810;28;20303;-66
2022/08/20 04:11:59;;;;;;;14.03;7.83;;;;;;;23.39;100.00;100738.94;2072140;28;20557;-66
2022/08/20 04:12:59;;;;;;;13.73;8.17;;;;;;;23.41;100.00;100733.53;2069193;28;20190;-66
2022/08/20 04:14:00;;;;;;;10.63;7.83;;;;;;;23.44;100.00;100735.31;2066344;28;20676;-66
2022/08/20 04:15:00;;;;;;;14.90;8.17;;;;;;;23.45;100.00;100736.09;2070729;28;20664;-66
2022/08/20 04:16:02;;;;;;;13.07;8.57;;;;;;;23.44;100.00;100740.97;2063705;28;20181;-66
2022/08/20 04:17:08;;;;;;;15.00;8.63;;;;;;;23.42;100.00;100734.28;2064601;28;20178;-66
2022/08/20 04:18:10;;;;;;;11.47;8.63;;;;;;;23.49;100.00;100745.09;2072286;28;20182;-67
2022/08/20 04:19:11;;;;;;;11.57;7.60;;;;;;;23.49;100.00;100740.19;2056753;28;20198;-66
2022/08/20 04:20:15;;;;;;;12.50;7.93;;;;;;;23.56;100.00;100739.69;2055348;28;20200;-66
2022/08/20 04:21:15;;;;;;;14.17;8.30;;;;;;;23.60;100.00;100742.22;2064459;28;20217;-66
2022/08/20 04:22:16;;;;;;;11.10;8.30;;;;;;;23.62;100.00;100742.47;2069674;28;20201;-66
2022/08/20 04:23:17;;;;;;;9.07;7.57;;;;;;;23.62;100.00;100740.41;2069403;28;20209;-66
2022/08/20 04:24:18;;;;;;;15.30;7.80;;;;;;;23.62;100.00;100740.41;2063890;28;20254;-66
2022/08/20 04:25:18;;;;;;;13.10;7.90;;;;;;;23.64;100.00;100743.50;2063535;28;20178;-66
2022/08/20 04:26:20;;;;;;;12.20;8.40;;;;;;;23.62;100.00;100740.41;2063644;28;20193;-66
2022/08/20 04:27:20;;;;;;;10.37;8.07;;;;;;;23.70;100.00;100751.97;2072503;28;20189;-66
2022/08/20 04:28:25;;;;;;;12.90;8.53;;;;;;;23.75;100.00;100765.34;2067910;28;20265;-66
2022/08/20 04:29:26;;;;;;;17.17;8.10;;;;;;;23.15;100.00;100658.78;2063760;28;20268;-66
2022/08/20 04:30:28;;;;;;;12.03;8.43;;;;;;;23.81;100.00;100752.72;2058270;28;20191;-66
2022/08/20 04:31:32;;;;;;;15.33;8.43;;;;;;;23.85;100.00;100753.19;2064292;28;20195;-66
2022/08/20 04:32:35;;;;;;;15.33;8.43;;;;;;;23.87;100.00;100747.00;2064170;28;20174;-66
2022/08/20 04:33:36;;;;;;;13.20;8.83;;;;;;;23.91;100.00;100750.38;2066810;28;20186;-66
2022/08/20 04:34:37;;;;;;;12.77;8.17;;;;;;;23.48;100.00;100676.44;2070646;28;20660;-66
2022/08/20 04:35:38;;;;;;;11.57;7.70;;;;;;;23.94;100.00;100741.59;2063464;28;20181;-66
2022/08/20 04:36:39;;;;;;;10.80;7.67;;;;;;;23.93;100.00;100754.22;2072708;28;20186;-66
2022/08/20 04:37:56;;;;;;;15.87;7.70;;;;;;;23.28;100.00;100639.25;2064377;28;20244;-66
2022/08/20 04:38:56;;;;;;;9.03;7.73;;;;;;;24.00;100.00;100750.09;2056162;28;20199;-67
2022/08/20 04:41:25;;;;;;;12.67;8.07;;;;;;;24.01;100.00;100752.38;2060733;28;20238;-66
2022/08/20 04:42:25;;;;;;;11.53;8.43;;;;;;;24.02;100.00;100748.28;2060435;28;20195;-67
2022/08/20 04:43:29;;;;;;;13.90;8.53;;;;;;;23.18;100.00;100609.72;2055918;28;20183;-66
2022/08/20 04:44:29;;;;;;;14.90;8.70;;;;;;;24.13;100.00;100755.91;2056205;28;20687;-67
2022/08/20 04:45:31;;;;;;;12.73;8.60;;;;;;;23.91;100.00;100717.16;2055524;28;20584;-66
2022/08/20 04:46:31;;;;;;;16.20;8.53;;;;;;;23.78;100.00;100688.66;2064390;28;20694;-66
2022/08/20 04:47:32;;;;;;;15.67;9.13;;;;;;;24.19;100.00;100756.66;2065364;28;20190;-66
2022/08/20 04:48:33;;;;;;;15.63;9.00;;;;;;;24.21;100.00;100749.19;2059179;28;20264;-66
2022/08/20 04:49:36;;;;;;;13.47;8.33;;;;;;;24.23;100.00;100746.63;2063398;28;20695;-66